Strumenti personali
Tu sei qui: Portale Dati rete

Dati disponibili

Clicca sulla provincia, potrai visualizzare le stazioni presenti nel suo territorio

Belluno, Padova, Rovigo, Treviso, Venezia, Verona, Vicenza

 

 

Provincia di BellunoProvincia di VicenzaProvincia di TrevisoProvincia di VeneziaProvincia di PadovaProvincia di VeronaProvincia di Rovigo

Dipartimento Regionale per la Sicurezza del Territorio

Servizio Centro Meteorologico di Teolo

Stazione Forno di Zoldo - Campo
Provincia BELLUNO

Valori giornalieri nel periodo 23/02/2014 - 23/04/2014

La tabella è stata elaborata con i dati trasmessi in automatico dalle centraline, dopo la validazione possono subire parziali modifiche.
Data (gg/mm/aa) Temp. aria
a 2m
(°C)
Pioggia
(mm)
Umidità rel.
a 2m
(%)
Radiazione globale
(MJ/m2)
Vento a 5 m
  med     min     max   tot min max tot Sfilato (km/g) Raffica Direz. preval
ora m/s
23/02/14 -0.2 -4.6 8.4 0.0 48 98 12.979 75.5 00:09 3.1 OSO
24/02/14 0.7 -4.4 10.4 0.0 36 96 12.960 78.8 16:19 4.0 OSO
25/02/14 1.4 -4.1 9.4 0.0 39 94 13.022 74.7 15:07 4.2 OSO
26/02/14 2.9 -0.3 7.8 0.6 47 99 8.140 53.2 15:42 4.8 OSO
27/02/14 2.9 0.1 8.8 1.0 48 100 10.361 61.4 15:03 7.3 OSO
28/02/14 1.6 -1.0 7.0 0.0 55 100 8.943 62.2 15:38 6.8 OSO
01/03/14 1.1 0.0 4.9 27.2 60 99 3.050 18.5 12:56 2.3 OSO
02/03/14 1.5 0.0 5.3 15.0 67 100 4.983 43.0 15:02 4.9 OSO
03/03/14 2.1 -1.3 6.0 0.0 60 100 8.849 46.3 13:17 4.1 OSO
04/03/14 2.9 -0.7 8.2 0.0 41 99 7.029 78.5 12:57 6.2 OSO
05/03/14 3.2 -1.2 12.2 0.0 26 90 9.577 89.3 13:25 4.5 OSO
06/03/14 3.5 -1.4 13.6 0.0 24 83 12.426 112.4 14:08 4.1 OSO
07/03/14 4.4 -1.6 14.1 0.0 29 90 16.192 85.0 11:42 4.3 OSO
08/03/14 4.3 -1.7 15.4 0.0 12 92 16.775 88.4 11:44 3.6 OSO
09/03/14 4.1 -2.1 14.6 0.0 21 84 17.196 96.1 11:12 4.8 OSO
10/03/14 3.9 -2.3 14.4 0.0 22 88 16.418 81.0 17:14 5.4 OSO
11/03/14 4.3 -1.7 14.6 0.0 28 89 17.754 81.2 12:34 5.5 OSO
12/03/14 5.1 -1.0 15.4 0.0 24 85 18.225 60.8 13:23 3.0 OSO
13/03/14 5.6 -0.4 16.6 0.0 25 87 18.037 70.4 12:03 4.3 OSO
14/03/14 6.1 0.0 16.6 0.0 30 91 18.482 73.6 12:11 3.8 OSO
15/03/14 5.9 -0.1 13.9 0.0 39 93 13.110 71.6 17:24 6.1 OSO
16/03/14 7.7 0.8 19.0 0.0 24 86 18.595 87.1 15:58 8.4 OSO
17/03/14 8.5 1.5 21.2 0.0 10 78 19.800 114.4 12:50 6.1 OSO
18/03/14 7.4 0.8 18.3 0.0 24 91 19.210 100.8 11:34 4.6 OSO
19/03/14 7.5 0.5 17.7 0.0 12 96 19.976 106.1 12:55 7.4 OSO
20/03/14 7.0 0.5 17.4 0.0 32 91 18.621 93.6 13:07 4.4 OSO
21/03/14 6.8 0.9 15.5 0.0 37 96 17.472 84.4 14:07 5.0 OSO
22/03/14 5.1 1.9 11.0 5.8 60 100 5.579 40.7 14:12 4.6 OSO
23/03/14 2.5 0.2 5.5 45.4 88 100 3.320 23.0 14:50 2.0 OSO
24/03/14 2.2 -1.5 7.9 2.6 40 100 11.623 51.2 14:30 4.6 OSO
25/03/14 1.1 -3.0 7.9 0.0 36 96 13.889 35.8 12:49 5.2 SO
26/03/14 3.0 -1.1 8.9 0.0 33 97 12.652 36.4 13:28 4.8 OSO
27/03/14 4.7 1.1 10.4 0.0 35 86 11.591 76.6 13:16 8.1 OSO
28/03/14 5.6 -0.9 15.1 0.0 25 88 15.495 79.0 16:50 4.0 OSO
29/03/14 6.9 -0.3 16.9 0.0 25 91 22.079 94.6 13:51 4.7 OSO
30/03/14 7.7 0.3 17.9 0.0 26 91 21.313 93.4 15:08 5.3 OSO
31/03/14 8.6 1.3 19.3 0.0 28 93 21.106 97.9 14:56 5.5 OSO
01/04/14 8.7 2.0 17.8 0.0 36 93 19.223 110.5 17:03 7.7 OSO
02/04/14 8.3 3.8 16.0 0.0 42 91 13.004 81.7 15:25 5.6 OSO
03/04/14 7.3 2.7 12.1 0.0 63 94 8.541 52.3 13:20 3.3 OSO
04/04/14 8.9 2.4 16.9 0.0 38 95 16.989 98.2 10:57 7.3 OSO
05/04/14 9.8 5.0 17.1 0.0 42 89 14.284 84.8 12:49 5.3 OSO
06/04/14 10.0 3.4 18.6 0.0 30 91 15.037 90.9 15:37 3.3 OSO
07/04/14 10.3 2.8 20.2 0.0 33 93 22.662 110.3 14:57 8.1 OSO
08/04/14 9.7 3.9 18.4 8.6 46 100 15.746 96.4 16:38 6.7 OSO
09/04/14 7.8 2.1 15.2 0.0 16 100 21.520 114.1 13:13 7.8 OSO
10/04/14 8.7 -0.4 18.1 0.0 21 80 19.964 92.1 11:29 10.1 OSO
11/04/14 8.7 3.0 15.4 0.0 50 90 17.516 79.6 15:02 7.5 ENE
12/04/14 9.1 6.1 14.2 2.0 53 100 11.441 58.4 15:05 5.3 OSO
13/04/14 9.2 3.2 17.0 0.2 27 100 13.983 62.8 15:31 7.5 OSO
14/04/14 9.3 1.5 17.8 0.0 41 95 23.685 106.3 16:11 7.1 OSO
15/04/14 7.2 2.0 11.0 0.0 16 53 26.095 136.4 11:03 8.9 OSO
16/04/14 5.2 -1.6 13.1 0.0 14 63 22.643 86.5 15:54 7.8 OSO
17/04/14 6.8 -1.9 16.4 0.0 10 67 27.262 85.7 13:05 6.7 OSO
18/04/14 7.6 -0.3 15.4 3.6 20 94 16.782 81.6 13:39 6.3 OSO
19/04/14 2.7 0.1 5.3 28.0 93 100 2.316 33.7 11:23 2.7 OSO
20/04/14 6.9 1.1 12.0 5.6 62 100 12.012 79.6 10:54 7.0 OSO
21/04/14 6.7 4.9 9.2 2.4 83 100 4.676 27.3 23:16 1.8 OSO
22/04/14 9.2 2.0 18.1 0.2 43 100 23.302 79.8 11:50 5.8 OSO
23/04/14 10.3 3.7 20.4 1.2 33 98 20.974 86.0 15:46 5.8 OSO
Se la casella è vuota il sensore non è attivo.
Se la casella contiene ">>" il valore non è disponibile.
Si segnala che con precipitazione nevosa il pluviometro potrebbe non rilevare o sottostimare il fenomeno.
L'orario indicato nella raffica è solare.
La direzione prevalente del vento è in settori e rappresenta la provenienza del vento, il settore è ampio 22.5 gradi con asse nella direzione indicata.

Oltre alla gestione operativa delle stazioni, che comprende le operazioni di acquisizione, validazione e archiviazione dati, tale settore si occupa della predisposizione di una serie di prodotti e servizi, finalizzati all'utenza esterna, rappresentati dai dati e servizi di tipo standard il cui costo è gia quantificato (listino prodotti tariffati) o prodotti e servizi particolari, legati a specifiche esigenze dell'utenza, il cui prezzo viene determinato di volta in volta al momento della richiesta dati.

Azioni sul documento

ultima modifica 01/07/2011 15:07